createdAt,value
2023-04-22T00:00:09.230Z,99749.47
2023-04-22T00:02:37.427Z,99763.75
2023-04-22T00:05:08.545Z,99745.06
2023-04-22T00:07:37.560Z,99745.91
2023-04-22T00:10:06.064Z,99756.66
2023-04-22T00:12:34.615Z,99758.16
2023-04-22T00:15:02.423Z,99751.09
2023-04-22T00:17:30.259Z,99747.56
2023-04-22T00:19:57.936Z,99751.09
2023-04-22T00:22:25.647Z,99745.91
2023-04-22T00:24:53.292Z,99743.47
2023-04-22T00:27:21.179Z,99744.22
2023-04-22T00:29:48.935Z,99739.06
2023-04-22T00:32:16.682Z,99736.38
2023-04-22T00:34:44.527Z,99730.13
2023-04-22T00:37:12.305Z,99733.88
2023-04-22T00:39:40.355Z,99747.25
2023-04-22T00:42:08.590Z,99742.94
2023-04-22T00:44:36.790Z,99738.97
2023-04-22T00:47:06.596Z,99746.72
2023-04-22T00:49:36.422Z,99742.59
2023-04-22T00:52:04.285Z,99748.25
2023-04-22T00:54:34.472Z,99745.66
2023-04-22T00:57:05.331Z,99746.72
2023-04-22T00:59:33.346Z,99739.84
2023-04-22T01:02:02.855Z,99738.69
2023-04-22T01:04:31.390Z,99739.56
2023-04-22T01:07:00.738Z,99739.56
2023-04-22T01:09:28.903Z,99743.31
2023-04-22T01:11:57.490Z,99744.44
2023-04-22T01:14:25.915Z,99745.50
2023-04-22T01:16:57.690Z,99740.44
2023-04-22T01:19:26.740Z,99743.97
2023-04-22T01:21:55.927Z,99744.19
2023-04-22T01:24:23.702Z,99737.28
2023-04-22T01:26:51.527Z,99748.75
2023-04-22T01:29:19.721Z,99754.31
2023-04-22T01:31:47.987Z,99752.78
2023-04-22T01:34:15.872Z,99757.56
2023-04-22T01:36:44.953Z,99749.06
2023-04-22T01:39:12.854Z,99758.16
2023-04-22T01:41:41.866Z,99755.56
2023-04-22T01:44:10.553Z,99754.03
2023-04-22T01:46:38.623Z,99763.22
2023-04-22T01:49:07.358Z,99765.13
2023-04-22T01:51:35.347Z,99764.47
2023-04-22T01:54:05.938Z,99769.81
2023-04-22T01:56:33.955Z,99760.06
2023-04-22T01:59:01.994Z,99749.25
2023-04-22T02:01:34.363Z,99773.72
2023-04-22T02:04:02.400Z,99765.88
2023-04-22T02:06:32.588Z,99767.69
2023-04-22T02:09:00.554Z,99760.72
2023-04-22T02:11:28.702Z,99752.50
2023-04-22T02:13:57.538Z,99747.69
2023-04-22T02:16:29.380Z,99755.16
2023-04-22T02:18:57.382Z,99759.56
2023-04-22T02:21:25.648Z,99761.31
2023-04-22T02:23:53.592Z,99734.44
2023-04-22T02:26:21.601Z,99763.41
2023-04-22T02:28:49.600Z,99764.53
2023-04-22T02:31:17.668Z,99762.31
2023-04-22T02:33:46.984Z,99747.06
2023-04-22T02:36:16.418Z,99753.19
2023-04-22T02:38:45.025Z,99760.53
2023-04-22T02:41:22.638Z,99757.38
2023-04-22T02:43:51.701Z,99748.00
2023-04-22T02:46:20.193Z,99761.19
2023-04-22T02:48:50.834Z,99758.97
2023-04-22T02:51:19.410Z,99758.31
2023-04-22T02:53:48.662Z,99751.41
2023-04-22T02:56:17.086Z,99757.34
2023-04-22T02:58:45.698Z,99772.59
2023-04-22T03:01:15.042Z,99777.03
2023-04-22T03:03:43.669Z,99774.63
2023-04-22T03:06:16.811Z,99776.69
2023-04-22T03:08:46.592Z,99785.75
2023-04-22T03:11:14.627Z,99766.91
2023-04-22T03:13:43.447Z,99771.78
2023-04-22T03:16:12.520Z,99789.66
2023-04-22T03:18:40.806Z,99761.81
2023-04-22T03:21:09.077Z,99777.59
2023-04-22T03:23:39.523Z,99777.84
2023-04-22T03:26:07.817Z,99792.75
2023-04-22T03:28:36.731Z,99769.50
2023-04-22T03:31:06.334Z,99783.47
2023-04-22T03:33:34.604Z,99773.91
2023-04-22T03:36:12.583Z,99777.59
2023-04-22T03:38:40.984Z,99772.50
2023-04-22T03:41:10.377Z,99784.06
2023-04-22T03:43:42.560Z,99769.69
2023-04-22T03:46:11.450Z,99774.19
2023-04-22T03:48:47.225Z,99772.53
2023-04-22T03:51:24.830Z,99774.59
2023-04-22T03:53:53.203Z,99757.97
2023-04-22T03:56:24.846Z,99770.13
2023-04-22T03:58:56.502Z,99777.16
2023-04-22T04:01:25.653Z,99766.94
2023-04-22T04:03:59.133Z,99769.59
2023-04-22T04:06:34.989Z,99775.06
2023-04-22T04:09:04.253Z,99754.81
2023-04-22T04:11:32.803Z,99769.63
2023-04-22T04:14:03.613Z,99733.81
2023-04-22T04:16:43.290Z,99751.72
2023-04-22T04:19:17.477Z,99734.56
2023-04-22T04:21:47.180Z,99746.28
2023-04-22T04:24:16.148Z,99735.53
2023-04-22T04:26:49.966Z,99756.72
2023-04-22T04:29:28.125Z,99766.19
2023-04-22T04:32:08.152Z,99763.31
2023-04-22T04:34:38.109Z,99756.28
2023-04-22T04:37:08.657Z,99753.19
2023-04-22T04:39:49.015Z,99741.81
2023-04-22T04:42:20.953Z,99750.28
2023-04-22T04:44:55.040Z,99755.03
2023-04-22T04:47:23.468Z,99761.94
2023-04-22T04:49:55.147Z,99769.94
2023-04-22T04:52:23.848Z,99773.81
2023-04-22T04:54:53.845Z,99753.00
2023-04-22T04:57:23.265Z,99762.00
2023-04-22T04:59:51.889Z,99765.97
2023-04-22T05:02:22.505Z,99749.50
2023-04-22T05:04:52.855Z,99768.75
2023-04-22T05:07:21.855Z,99777.44
2023-04-22T05:09:53.209Z,99779.66
2023-04-22T05:12:21.733Z,99775.56
2023-04-22T05:14:50.413Z,99785.00
2023-04-22T05:17:20.691Z,99767.75
2023-04-22T05:19:52.092Z,99787.75
2023-04-22T05:22:23.207Z,99777.84
2023-04-22T05:24:52.065Z,99790.63
2023-04-22T05:27:21.136Z,99787.00
2023-04-22T05:29:50.002Z,99769.75
2023-04-22T05:32:22.732Z,99775.03
2023-04-22T05:34:51.113Z,99772.38
2023-04-22T05:37:19.512Z,99763.75
2023-04-22T05:39:51.204Z,99771.56
2023-04-22T05:42:19.812Z,99769.44
2023-04-22T05:44:48.251Z,99779.31
2023-04-22T05:47:18.577Z,99770.84
2023-04-22T05:49:47.369Z,99784.75
2023-04-22T05:52:23.382Z,99784.13
2023-04-22T05:55:12.078Z,99790.81
2023-04-22T05:57:41.037Z,99790.91
2023-04-22T06:00:22.042Z,99823.38
2023-04-22T06:03:04.663Z,99795.53
2023-04-22T06:05:33.674Z,99811.69
2023-04-22T06:08:02.010Z,99818.97
2023-04-22T06:10:30.444Z,99811.00
2023-04-22T06:13:00.224Z,99793.00
2023-04-22T06:15:30.455Z,99807.06
2023-04-22T06:18:01.209Z,99806.25
2023-04-22T06:20:32.799Z,99805.78
2023-04-22T06:23:05.487Z,99792.69
2023-04-22T06:25:37.640Z,99811.72
2023-04-22T06:28:06.178Z,99814.66
2023-04-22T06:30:37.828Z,99806.56
2023-04-22T06:33:06.547Z,99814.19
2023-04-22T06:35:34.723Z,99795.16
2023-04-22T06:38:04.877Z,99784.47
2023-04-22T06:40:41.030Z,99779.38
2023-04-22T06:43:16.491Z,99798.38
2023-04-22T06:46:04.239Z,99775.25
2023-04-22T06:48:52.623Z,99794.19
2023-04-22T06:51:39.322Z,99786.19
2023-04-22T06:54:08.903Z,99777.34
2023-04-22T06:56:37.190Z,99796.56
2023-04-22T06:59:05.483Z,99779.44
2023-04-22T07:01:34.240Z,99791.59
2023-04-22T07:04:02.527Z,99787.16
2023-04-22T07:06:31.132Z,99795.56
2023-04-22T07:08:59.426Z,99809.47
2023-04-22T07:11:27.977Z,99793.31
2023-04-22T07:14:03.969Z,99794.97
2023-04-22T07:16:34.046Z,99788.44
2023-04-22T07:19:02.604Z,99793.34
2023-04-22T07:21:33.211Z,99784.78
2023-04-22T07:24:03.437Z,99781.34
2023-04-22T07:26:32.824Z,99795.31
2023-04-22T07:29:00.976Z,99794.69
2023-04-22T07:31:29.346Z,99794.00
2023-04-22T07:33:57.768Z,99797.34
2023-04-22T07:36:27.226Z,99788.44
2023-04-22T07:38:57.231Z,99804.31
2023-04-22T07:41:26.119Z,99787.41
2023-04-22T07:43:56.149Z,99796.16
2023-04-22T07:46:24.428Z,99778.25
2023-04-22T07:48:53.398Z,99770.63
2023-04-22T07:51:22.373Z,99778.97
2023-04-22T07:53:50.761Z,99774.34
2023-04-22T07:56:19.213Z,99789.69
2023-04-22T07:58:48.895Z,99789.50
2023-04-22T08:01:19.993Z,99788.16
2023-04-22T08:03:53.614Z,99796.41
2023-04-22T08:06:22.300Z,99787.38
2023-04-22T08:08:55.147Z,99770.25
2023-04-22T08:11:25.239Z,99773.44
2023-04-22T08:13:57.420Z,99789.03
2023-04-22T08:16:28.236Z,99771.78
2023-04-22T08:18:59.349Z,99786.25
2023-04-22T08:21:28.559Z,99779.47
2023-04-22T08:23:57.777Z,99768.06
2023-04-22T08:26:28.839Z,99797.78
2023-04-22T08:28:58.219Z,99790.94
2023-04-22T08:31:30.269Z,99758.81
2023-04-22T08:34:00.408Z,99778.94
2023-04-22T08:36:28.880Z,99773.44
2023-04-22T08:38:57.881Z,99774.19
2023-04-22T08:41:27.065Z,99768.44
2023-04-22T08:43:56.735Z,99753.50
2023-04-22T08:46:26.962Z,99747.88
2023-04-22T08:49:03.872Z,99755.72
2023-04-22T08:51:36.027Z,99751.91
2023-04-22T08:54:07.163Z,99757.22
2023-04-22T08:56:37.646Z,99747.28
2023-04-22T08:59:07.591Z,99749.38
2023-04-22T09:01:42.180Z,99756.53
2023-04-22T09:04:12.198Z,99747.50
2023-04-22T09:06:40.564Z,99741.31
2023-04-22T09:09:09.865Z,99759.47
2023-04-22T09:11:40.269Z,99743.13
2023-04-22T09:14:09.080Z,99745.16
2023-04-22T09:16:49.366Z,99726.75
2023-04-22T09:19:17.971Z,99751.94
2023-04-22T09:21:51.418Z,99723.47
2023-04-22T09:24:21.721Z,99733.22
2023-04-22T09:26:50.308Z,99727.31
2023-04-22T09:29:21.127Z,99727.50
2023-04-22T09:31:51.280Z,99733.81
2023-04-22T09:34:22.663Z,99727.63
2023-04-22T09:36:55.113Z,99709.31
2023-04-22T09:39:24.618Z,99736.00
2023-04-22T09:41:56.812Z,99698.81
2023-04-22T09:44:28.441Z,99717.78
2023-04-22T09:47:00.733Z,99706.97
2023-04-22T09:49:28.958Z,99700.00
2023-04-22T09:51:58.710Z,99695.31
2023-04-22T09:54:26.921Z,99698.19
2023-04-22T09:56:55.009Z,99705.91
2023-04-22T09:59:25.728Z,99694.22
2023-04-22T10:02:00.928Z,99679.72
2023-04-22T10:04:30.690Z,99685.88
2023-04-22T10:07:00.458Z,99708.72
2023-04-22T10:09:30.357Z,99692.59
2023-04-22T10:11:59.419Z,99694.63
2023-04-22T10:14:31.210Z,99698.81
2023-04-22T10:17:03.614Z,99682.16
2023-04-22T10:19:34.245Z,99696.13
2023-04-22T10:22:11.228Z,99698.28
2023-04-22T10:24:42.228Z,99693.03
2023-04-22T10:27:12.863Z,99691.28
2023-04-22T10:29:43.862Z,99697.84
2023-04-22T10:32:20.019Z,99706.97
2023-04-22T10:34:52.121Z,99688.31
2023-04-22T10:37:21.828Z,99682.47
2023-04-22T10:40:16.537Z,99680.00
2023-04-22T10:42:52.892Z,99689.13
2023-04-22T10:45:48.447Z,99667.31
2023-04-22T10:48:51.139Z,99656.63
2023-04-22T10:51:48.163Z,99670.72
2023-04-22T10:54:31.509Z,99682.78
2023-04-22T10:57:15.655Z,99656.56
2023-04-22T10:59:56.137Z,99669.66
2023-04-22T11:02:26.669Z,99670.16
2023-04-22T11:05:25.862Z,99677.59
2023-04-22T11:08:03.441Z,99665.75
2023-04-22T11:10:45.124Z,99669.72
2023-04-22T11:13:21.934Z,99667.97
2023-04-22T11:15:54.243Z,99672.94
2023-04-22T11:18:26.996Z,99656.38
2023-04-22T11:20:56.895Z,99679.81
2023-04-22T11:23:27.960Z,99677.50
2023-04-22T11:26:07.624Z,99689.06
2023-04-22T11:28:36.835Z,99667.66
2023-04-22T11:31:10.763Z,99668.88
2023-04-22T11:33:40.104Z,99668.31
2023-04-22T11:36:14.006Z,99651.97
2023-04-22T11:38:43.466Z,99657.78
2023-04-22T11:41:13.053Z,99667.88
2023-04-22T11:43:49.592Z,99658.25
2023-04-22T11:46:28.625Z,99665.63
2023-04-22T11:49:17.096Z,99662.22
2023-04-22T11:51:58.324Z,99654.84
2023-04-22T11:54:37.848Z,99670.81
2023-04-22T11:57:12.019Z,99678.97
2023-04-22T11:59:40.615Z,99660.09
2023-04-22T12:02:11.000Z,99675.94
2023-04-22T12:04:44.634Z,99664.59
2023-04-22T12:07:16.223Z,99697.28
2023-04-22T12:09:47.621Z,99684.78
2023-04-22T12:12:16.068Z,99683.06
2023-04-22T12:14:47.384Z,99680.97
2023-04-22T12:17:16.913Z,99673.84
2023-04-22T12:19:48.821Z,99679.38
2023-04-22T12:22:28.956Z,99669.19
2023-04-22T12:25:01.989Z,99679.13
2023-04-22T12:27:30.247Z,99669.19
2023-04-22T12:30:00.066Z,99672.28
2023-04-22T12:32:28.697Z,99668.56
2023-04-22T12:34:57.256Z,99666.84
2023-04-22T12:37:28.374Z,99671.28
2023-04-22T12:39:59.160Z,99688.97
2023-04-22T12:42:28.370Z,99674.00
2023-04-22T12:44:57.323Z,99676.31
2023-04-22T12:47:28.499Z,99674.00
2023-04-22T12:49:58.981Z,99677.09
2023-04-22T12:52:28.465Z,99670.34
2023-04-22T12:54:57.780Z,99689.00
2023-04-22T12:57:27.534Z,99683.75
2023-04-22T12:59:56.167Z,99683.13
2023-04-22T13:02:29.256Z,99683.53
2023-04-22T13:04:58.234Z,99686.78
2023-04-22T13:07:27.508Z,99670.69
2023-04-22T13:09:55.752Z,99685.53
2023-04-22T13:12:27.650Z,99688.44
2023-04-22T13:14:55.816Z,99669.84
2023-04-22T13:17:24.937Z,99690.88
2023-04-22T13:19:53.357Z,99673.78
2023-04-22T13:22:22.364Z,99671.47
2023-04-22T13:24:53.767Z,99679.44
2023-04-22T13:27:26.210Z,99659.31
2023-04-22T13:29:54.806Z,99683.66
2023-04-22T13:32:25.646Z,99664.19
2023-04-22T13:34:56.280Z,99674.28
2023-04-22T13:37:24.855Z,99659.72
2023-04-22T13:39:53.332Z,99658.28
2023-04-22T13:42:22.213Z,99680.28
2023-04-22T13:44:52.673Z,99658.91
2023-04-22T13:47:21.056Z,99663.59
2023-04-22T13:49:50.293Z,99647.75
2023-04-22T13:52:18.522Z,99660.31
2023-04-22T13:54:47.515Z,99631.63
2023-04-22T13:57:15.735Z,99652.91
2023-04-22T13:59:45.189Z,99650.00
2023-04-22T14:02:14.575Z,99642.59
2023-04-22T14:04:44.344Z,99630.78
2023-04-22T14:07:13.590Z,99629.78
2023-04-22T14:09:45.724Z,99633.66
2023-04-22T14:12:14.417Z,99633.81
2023-04-22T14:14:43.195Z,99626.00
2023-04-22T14:17:11.963Z,99625.81
2023-04-22T14:19:41.040Z,99636.91
2023-04-22T14:22:14.694Z,99639.03
2023-04-22T14:24:42.768Z,99635.97
2023-04-22T14:27:12.557Z,99633.81
2023-04-22T14:29:42.497Z,99625.66
2023-04-22T14:32:11.342Z,99629.78
2023-04-22T14:34:41.410Z,99631.63
2023-04-22T14:37:10.330Z,99627.22
2023-04-22T14:39:38.828Z,99619.38
2023-04-22T14:42:07.441Z,99644.09
2023-04-22T14:44:36.146Z,99620.22
2023-04-22T14:47:04.603Z,99639.44
2023-04-22T14:49:33.509Z,99642.78
2023-04-22T14:52:02.443Z,99629.84
2023-04-22T14:54:30.663Z,99624.34
2023-04-22T14:56:59.598Z,99623.28
2023-04-22T14:59:28.337Z,99628.53
2023-04-22T15:01:56.802Z,99615.75
2023-04-22T15:04:26.767Z,99626.91
2023-04-22T15:06:57.995Z,99629.94
2023-04-22T15:09:28.033Z,99632.69
2023-04-22T15:11:57.434Z,99616.53
2023-04-22T15:14:25.611Z,99623.78
2023-04-22T15:16:54.408Z,99633.09
2023-04-22T15:19:22.663Z,99643.78
2023-04-22T15:21:51.117Z,99622.81
2023-04-22T15:24:20.753Z,99642.38
2023-04-22T15:26:49.230Z,99618.72
2023-04-22T15:29:17.517Z,99642.25
2023-04-22T15:31:48.184Z,99632.13
2023-04-22T15:34:16.870Z,99645.81
2023-04-22T15:36:45.028Z,99639.44
2023-04-22T15:39:17.333Z,99642.69
2023-04-22T15:41:46.338Z,99639.44
2023-04-22T15:44:16.624Z,99617.78
2023-04-22T15:46:47.105Z,99625.69
2023-04-22T15:49:15.750Z,99633.97
2023-04-22T15:51:44.645Z,99654.19
2023-04-22T15:54:13.867Z,99634.41
2023-04-22T15:56:42.361Z,99640.16
2023-04-22T15:59:10.855Z,99641.91
2023-04-22T16:01:42.272Z,99637.09
2023-04-22T16:04:12.589Z,99638.50
2023-04-22T16:06:44.428Z,99638.25
2023-04-22T16:09:13.571Z,99644.66
2023-04-22T16:11:42.138Z,99649.09
2023-04-22T16:14:14.986Z,99650.53
2023-04-22T16:16:47.115Z,99651.22
2023-04-22T16:19:15.865Z,99646.28
2023-04-22T16:21:44.466Z,99653.53
2023-04-22T16:24:14.955Z,99642.00
2023-04-22T16:26:43.620Z,99647.25
2023-04-22T16:29:12.270Z,99642.69
2023-04-22T16:31:40.777Z,99649.13
2023-04-22T16:34:10.801Z,99656.22
2023-04-22T16:36:39.417Z,99646.28
2023-04-22T16:39:08.148Z,99626.91
2023-04-22T16:41:36.700Z,99632.31
2023-04-22T16:44:05.144Z,99657.38
2023-04-22T16:46:33.676Z,99639.53
2023-04-22T16:49:04.508Z,99638.69
2023-04-22T16:51:40.049Z,99647.53
2023-04-22T16:54:08.181Z,99647.53
2023-04-22T16:56:38.047Z,99641.16
2023-04-22T16:59:11.629Z,99636.16
2023-04-22T17:01:42.457Z,99647.41
2023-04-22T17:04:11.812Z,99645.56
2023-04-22T17:06:41.364Z,99631.19
2023-04-22T17:09:09.988Z,99644.31
2023-04-22T17:11:38.604Z,99650.72
2023-04-22T17:14:06.719Z,99637.66
2023-04-22T17:16:37.437Z,99650.44
2023-04-22T17:19:05.599Z,99649.63
2023-04-22T17:21:37.557Z,99666.72
2023-04-22T17:24:07.391Z,99668.16
2023-04-22T17:26:37.878Z,99659.53
2023-04-22T17:29:06.708Z,99671.91
2023-04-22T17:31:35.552Z,99681.03
2023-04-22T17:34:04.257Z,99658.94
2023-04-22T17:36:32.553Z,99667.50
2023-04-22T17:39:01.375Z,99668.50
2023-04-22T17:41:31.029Z,99671.78
2023-04-22T17:43:59.465Z,99677.75
2023-04-22T17:46:28.069Z,99663.09
2023-04-22T17:48:56.806Z,99692.59
2023-04-22T17:51:26.977Z,99686.00
2023-04-22T17:54:00.038Z,99683.16
2023-04-22T17:56:28.798Z,99702.81
2023-04-22T17:58:57.043Z,99683.16
2023-04-22T18:01:26.141Z,99704.22
2023-04-22T18:03:54.670Z,99685.66
2023-04-22T18:06:23.350Z,99708.34
2023-04-22T18:08:52.056Z,99712.41
2023-04-22T18:11:20.156Z,99706.00
2023-04-22T18:13:49.457Z,99731.50
2023-04-22T18:16:25.129Z,99720.09
2023-04-22T18:18:55.512Z,99718.09
2023-04-22T18:21:24.056Z,99712.94
2023-04-22T18:23:54.581Z,99704.78
2023-04-22T18:26:23.476Z,99726.75
2023-04-22T18:28:51.705Z,99730.97
2023-04-22T18:31:21.498Z,99744.09
2023-04-22T18:33:50.417Z,99717.56
2023-04-22T18:36:19.188Z,99726.53
2023-04-22T18:38:48.783Z,99741.16
2023-04-22T18:41:16.987Z,99750.16
2023-04-22T18:43:47.275Z,99737.56
2023-04-22T18:46:17.478Z,99757.94
2023-04-22T18:48:45.774Z,99731.41
2023-04-22T18:51:14.764Z,99748.50
2023-04-22T18:53:43.705Z,99769.16
2023-04-22T18:56:12.214Z,99745.16
2023-04-22T18:58:41.897Z,99757.81
2023-04-22T19:01:12.528Z,99774.88
2023-04-22T19:03:41.275Z,99764.00
2023-04-22T19:06:12.384Z,99758.72
2023-04-22T19:08:43.625Z,99773.31
2023-04-22T19:11:11.733Z,99778.19
2023-04-22T19:13:39.990Z,99759.66
2023-04-22T19:16:08.200Z,99775.78
2023-04-22T19:18:37.602Z,99773.38
2023-04-22T19:21:07.565Z,99773.63
2023-04-22T19:23:37.904Z,99778.88
2023-04-22T19:26:09.799Z,99787.00
2023-04-22T19:28:38.106Z,99779.28
2023-04-22T19:31:06.476Z,99775.53
2023-04-22T19:33:37.109Z,99770.53
2023-04-22T19:36:08.788Z,99755.56
2023-04-22T19:38:36.946Z,99790.28
2023-04-22T19:41:08.935Z,99777.44
2023-04-22T19:43:41.213Z,99775.50
2023-04-22T19:46:09.486Z,99779.19
2023-04-22T19:48:37.934Z,99789.84
2023-04-22T19:51:06.861Z,99795.53
2023-04-22T19:53:37.285Z,99786.59
2023-04-22T19:56:08.527Z,99794.59
2023-04-22T19:58:39.432Z,99802.94
2023-04-22T20:01:09.908Z,99801.47
2023-04-22T20:03:39.715Z,99801.84
2023-04-22T20:06:08.726Z,99794.03
2023-04-22T20:08:42.225Z,99801.13
2023-04-22T20:11:12.245Z,99799.69
2023-04-22T20:13:43.439Z,99793.66
2023-04-22T20:16:13.187Z,99788.66
2023-04-22T20:18:43.203Z,99787.91
2023-04-22T20:21:15.594Z,99794.53
2023-04-22T20:23:44.299Z,99786.31
2023-04-22T20:26:13.385Z,99794.91
2023-04-22T20:28:47.678Z,99786.09
2023-04-22T20:31:19.039Z,99777.28
2023-04-22T20:33:51.323Z,99785.75
2023-04-22T20:36:22.548Z,99771.53
2023-04-22T20:38:55.069Z,99774.25
2023-04-22T20:41:24.961Z,99783.78
2023-04-22T20:43:53.502Z,99783.69
2023-04-22T20:46:23.953Z,99779.38
2023-04-22T20:48:56.498Z,99785.53
2023-04-22T20:51:28.602Z,99767.75
2023-04-22T20:53:57.554Z,99787.59
2023-04-22T20:56:28.403Z,99786.88
2023-04-22T20:58:56.659Z,99771.69
2023-04-22T21:01:28.032Z,99779.25
2023-04-22T21:04:00.650Z,99781.88
2023-04-22T21:06:35.468Z,99781.25
2023-04-22T21:09:06.805Z,99782.47
2023-04-22T21:11:37.245Z,99786.00
2023-04-22T21:14:06.096Z,99785.41
2023-04-22T21:16:40.548Z,99786.16
2023-04-22T21:19:09.874Z,99768.50
2023-04-22T21:21:39.383Z,99771.78
2023-04-22T21:24:08.544Z,99787.75
2023-04-22T21:26:40.579Z,99793.75
2023-04-22T21:29:08.873Z,99793.00
2023-04-22T21:31:40.179Z,99795.19
2023-04-22T21:34:10.148Z,99787.09
2023-04-22T21:36:39.014Z,99800.84
2023-04-22T21:39:08.562Z,99800.97
2023-04-22T21:41:36.965Z,99803.56
2023-04-22T21:44:06.745Z,99799.16
2023-04-22T21:46:35.421Z,99784.53
2023-04-22T21:49:04.549Z,99791.13
2023-04-22T21:51:33.720Z,99815.66
2023-04-22T21:54:05.472Z,99809.38
2023-04-22T21:56:34.397Z,99816.59
2023-04-22T21:59:04.900Z,99799.56
2023-04-22T22:01:33.486Z,99818.09
2023-04-22T22:04:03.704Z,99809.28
2023-04-22T22:06:33.538Z,99801.00
2023-04-22T22:09:02.379Z,99810.09
2023-04-22T22:11:31.557Z,99811.44
2023-04-22T22:13:59.747Z,99802.75
2023-04-22T22:16:28.379Z,99801.16
2023-04-22T22:18:59.446Z,99804.69
2023-04-22T22:21:27.691Z,99812.06
2023-04-22T22:23:56.360Z,99798.56
2023-04-22T22:26:24.654Z,99802.22
2023-04-22T22:28:52.677Z,99808.50
2023-04-22T22:31:21.624Z,99809.84
2023-04-22T22:33:49.685Z,99819.75
2023-04-22T22:36:18.554Z,99814.47
2023-04-22T22:38:46.823Z,99794.63
2023-04-22T22:41:15.241Z,99810.44
2023-04-22T22:43:43.751Z,99795.72
2023-04-22T22:46:11.734Z,99806.25
2023-04-22T22:48:43.578Z,99809.69
2023-04-22T22:51:15.452Z,99805.53
2023-04-22T22:53:45.206Z,99796.19
2023-04-22T22:56:16.024Z,99815.19
2023-04-22T22:58:46.119Z,99814.34
2023-04-22T23:01:14.694Z,99810.06
2023-04-22T23:03:43.542Z,99805.03
2023-04-22T23:06:11.823Z,99799.75
2023-04-22T23:08:40.218Z,99808.56
2023-04-22T23:11:08.202Z,99810.63
2023-04-22T23:13:37.138Z,99797.16
2023-04-22T23:16:05.644Z,99819.91
2023-04-22T23:18:34.086Z,99814.78
2023-04-22T23:21:03.147Z,99816.22
2023-04-22T23:23:32.075Z,99818.81
2023-04-22T23:26:01.064Z,99820.75
2023-04-22T23:28:29.988Z,99829.81
2023-04-22T23:31:01.346Z,99838.97
2023-04-22T23:33:31.573Z,99831.13
2023-04-22T23:36:04.450Z,99831.34
2023-04-22T23:38:33.310Z,99830.63
2023-04-22T23:41:03.125Z,99836.13
2023-04-22T23:43:31.646Z,99831.91
2023-04-22T23:46:00.825Z,99841.69
2023-04-22T23:48:29.262Z,99832.25
2023-04-22T23:50:59.031Z,99814.84
2023-04-22T23:53:28.379Z,99813.34
2023-04-22T23:55:57.385Z,99819.34
2023-04-22T23:58:26.567Z,99810.66
